Weather at Brussels Airport

Public forecast

Using degrees Celsius for public forecast. Weather courtesy of forecast.io.

Current aviation weather report (METAR) for Brussels Airport

Retrieved 2022/05/23 08:50 UTC (14 minutes ago):

EBBR 230850Z VRB02KT CAVOK 21/14 Q1002 NOSIG

Aviation forecast (TAF) for Brussels Airport

Retrieved 2022/05/23 06:28 UTC (3 hours ago):

TAF EBBR 230510Z 2306/2412 18007KT CAVOK PROB40 TEMPO 2310/2316 26018G28KT 3000 SHRA TSRA BKN009 BKN018CB BECMG 2312/2314 26011KT PROB30 TEMPO 2316/2409 4000 SHRA BKN009 BKN014CB